sensor_id;sensor_type;location;lat;lon;timestamp;P1;durP1;ratioP1;P2;durP2;ratioP2
19593;SDS011;9944;48.240;16.478;2023-03-23T00:02:53;6.85;;;4.82;;
19593;SDS011;9944;48.240;16.478;2023-03-23T00:06:55;6.00;;;4.30;;
19593;SDS011;9944;48.240;16.478;2023-03-23T00:10:57;6.18;;;4.45;;
19593;SDS011;9944;48.240;16.478;2023-03-23T00:15:01;8.13;;;4.72;;
19593;SDS011;9944;48.240;16.478;2023-03-23T00:19:06;6.15;;;4.13;;
19593;SDS011;9944;48.240;16.478;2023-03-23T00:23:10;6.45;;;4.50;;
19593;SDS011;9944;48.240;16.478;2023-03-23T00:27:12;8.30;;;4.60;;
19593;SDS011;9944;48.240;16.478;2023-03-23T00:31:16;5.45;;;4.40;;
19593;SDS011;9944;48.240;16.478;2023-03-23T00:35:19;5.75;;;4.05;;
19593;SDS011;9944;48.240;16.478;2023-03-23T00:39:21;6.40;;;4.18;;
19593;SDS011;9944;48.240;16.478;2023-03-23T00:43:24;7.57;;;4.35;;
19593;SDS011;9944;48.240;16.478;2023-03-23T00:47:29;6.45;;;4.15;;
19593;SDS011;9944;48.240;16.478;2023-03-23T00:51:33;4.18;;;3.60;;
19593;SDS011;9944;48.240;16.478;2023-03-23T00:55:35;5.28;;;4.00;;
19593;SDS011;9944;48.240;16.478;2023-03-23T00:59:38;5.22;;;4.30;;
19593;SDS011;9944;48.240;16.478;2023-03-23T01:03:41;4.68;;;3.78;;
19593;SDS011;9944;48.240;16.478;2023-03-23T01:07:46;6.03;;;3.88;;
19593;SDS011;9944;48.240;16.478;2023-03-23T01:11:49;6.45;;;4.15;;
19593;SDS011;9944;48.240;16.478;2023-03-23T01:15:52;7.45;;;4.50;;
19593;SDS011;9944;48.240;16.478;2023-03-23T01:19:54;6.30;;;4.72;;
19593;SDS011;9944;48.240;16.478;2023-03-23T01:23:58;6.13;;;4.22;;
19593;SDS011;9944;48.240;16.478;2023-03-23T01:28:00;7.10;;;3.92;;
19593;SDS011;9944;48.240;16.478;2023-03-23T01:32:02;6.93;;;4.50;;
19593;SDS011;9944;48.240;16.478;2023-03-23T01:36:05;5.65;;;3.90;;
19593;SDS011;9944;48.240;16.478;2023-03-23T01:40:11;5.15;;;4.00;;
19593;SDS011;9944;48.240;16.478;2023-03-23T01:48:54;7.30;;;4.65;;
19593;SDS011;9944;48.240;16.478;2023-03-23T01:52:58;7.05;;;4.85;;
19593;SDS011;9944;48.240;16.478;2023-03-23T01:57:06;6.28;;;4.40;;
19593;SDS011;9944;48.240;16.478;2023-03-23T02:01:12;5.60;;;4.45;;
19593;SDS011;9944;48.240;16.478;2023-03-23T02:05:19;5.80;;;4.28;;
19593;SDS011;9944;48.240;16.478;2023-03-23T02:09:26;6.53;;;4.15;;
19593;SDS011;9944;48.240;16.478;2023-03-23T02:13:30;5.85;;;4.45;;
19593;SDS011;9944;48.240;16.478;2023-03-23T02:17:33;6.82;;;4.35;;
19593;SDS011;9944;48.240;16.478;2023-03-23T02:26:32;5.68;;;4.10;;
19593;SDS011;9944;48.240;16.478;2023-03-23T02:30:47;9.02;;;4.97;;
19593;SDS011;9944;48.240;16.478;2023-03-23T02:35:04;7.35;;;4.93;;
19593;SDS011;9944;48.240;16.478;2023-03-23T02:39:10;10.05;;;5.30;;
19593;SDS011;9944;48.240;16.478;2023-03-23T02:43:17;7.07;;;4.70;;
19593;SDS011;9944;48.240;16.478;2023-03-23T02:47:22;8.90;;;5.40;;
19593;SDS011;9944;48.240;16.478;2023-03-23T02:51:28;6.43;;;4.72;;
19593;SDS011;9944;48.240;16.478;2023-03-23T02:55:31;7.43;;;5.35;;
19593;SDS011;9944;48.240;16.478;2023-03-23T02:59:38;6.90;;;5.40;;
19593;SDS011;9944;48.240;16.478;2023-03-23T03:03:41;6.93;;;4.80;;
19593;SDS011;9944;48.240;16.478;2023-03-23T03:07:53;7.47;;;4.95;;
19593;SDS011;9944;48.240;16.478;2023-03-23T03:12:11;7.35;;;4.55;;
19593;SDS011;9944;48.240;16.478;2023-03-23T03:16:21;6.95;;;5.00;;
19593;SDS011;9944;48.240;16.478;2023-03-23T03:20:28;7.88;;;5.43;;
19593;SDS011;9944;48.240;16.478;2023-03-23T03:24:33;8.95;;;5.50;;
19593;SDS011;9944;48.240;16.478;2023-03-23T03:28:37;8.02;;;5.43;;
19593;SDS011;9944;48.240;16.478;2023-03-23T03:32:43;6.05;;;4.50;;
19593;SDS011;9944;48.240;16.478;2023-03-23T03:36:51;7.15;;;4.80;;
19593;SDS011;9944;48.240;16.478;2023-03-23T03:40:58;7.03;;;4.45;;
19593;SDS011;9944;48.240;16.478;2023-03-23T03:45:00;7.13;;;5.05;;
19593;SDS011;9944;48.240;16.478;2023-03-23T03:49:03;8.02;;;5.35;;
19593;SDS011;9944;48.240;16.478;2023-03-23T03:53:08;7.93;;;4.97;;
19593;SDS011;9944;48.240;16.478;2023-03-23T03:57:13;6.45;;;4.53;;
19593;SDS011;9944;48.240;16.478;2023-03-23T04:01:38;7.55;;;5.43;;
19593;SDS011;9944;48.240;16.478;2023-03-23T04:05:41;5.90;;;4.80;;
19593;SDS011;9944;48.240;16.478;2023-03-23T04:09:45;8.48;;;5.97;;
19593;SDS011;9944;48.240;16.478;2023-03-23T04:13:52;8.45;;;5.22;;
19593;SDS011;9944;48.240;16.478;2023-03-23T04:17:57;7.63;;;5.63;;
19593;SDS011;9944;48.240;16.478;2023-03-23T04:22:00;7.32;;;5.10;;
19593;SDS011;9944;48.240;16.478;2023-03-23T04:26:08;8.10;;;5.10;;
19593;SDS011;9944;48.240;16.478;2023-03-23T04:30:20;7.63;;;4.97;;
19593;SDS011;9944;48.240;16.478;2023-03-23T04:34:34;8.95;;;5.15;;
19593;SDS011;9944;48.240;16.478;2023-03-23T04:38:37;7.45;;;5.40;;
19593;SDS011;9944;48.240;16.478;2023-03-23T04:42:48;8.48;;;5.55;;
19593;SDS011;9944;48.240;16.478;2023-03-23T04:47:07;7.53;;;5.40;;
19593;SDS011;9944;48.240;16.478;2023-03-23T04:51:16;8.48;;;5.50;;
19593;SDS011;9944;48.240;16.478;2023-03-23T04:55:22;8.35;;;5.43;;
19593;SDS011;9944;48.240;16.478;2023-03-23T04:59:30;7.78;;;5.07;;
19593;SDS011;9944;48.240;16.478;2023-03-23T05:03:51;8.77;;;5.78;;
19593;SDS011;9944;48.240;16.478;2023-03-23T05:07:54;8.90;;;5.95;;
19593;SDS011;9944;48.240;16.478;2023-03-23T05:12:03;10.60;;;6.03;;
19593;SDS011;9944;48.240;16.478;2023-03-23T05:16:08;8.57;;;5.55;;
19593;SDS011;9944;48.240;16.478;2023-03-23T05:20:15;8.20;;;5.68;;
19593;SDS011;9944;48.240;16.478;2023-03-23T05:24:23;11.73;;;6.28;;
19593;SDS011;9944;48.240;16.478;2023-03-23T05:28:26;9.75;;;6.15;;
19593;SDS011;9944;48.240;16.478;2023-03-23T05:32:49;8.40;;;5.53;;
19593;SDS011;9944;48.240;16.478;2023-03-23T05:37:03;14.05;;;5.95;;
19593;SDS011;9944;48.240;16.478;2023-03-23T05:41:17;7.28;;;5.30;;
19593;SDS011;9944;48.240;16.478;2023-03-23T05:45:20;8.73;;;5.25;;
19593;SDS011;9944;48.240;16.478;2023-03-23T05:49:25;7.75;;;5.72;;
19593;SDS011;9944;48.240;16.478;2023-03-23T05:53:29;10.32;;;6.18;;
19593;SDS011;9944;48.240;16.478;2023-03-23T05:57:32;8.10;;;5.50;;
19593;SDS011;9944;48.240;16.478;2023-03-23T06:01:51;9.77;;;5.82;;
19593;SDS011;9944;48.240;16.478;2023-03-23T06:05:56;13.13;;;6.40;;
19593;SDS011;9944;48.240;16.478;2023-03-23T06:10:09;7.30;;;5.38;;
19593;SDS011;9944;48.240;16.478;2023-03-23T06:14:13;7.72;;;5.60;;
19593;SDS011;9944;48.240;16.478;2023-03-23T06:18:17;9.85;;;6.00;;
19593;SDS011;9944;48.240;16.478;2023-03-23T06:22:39;7.63;;;5.57;;
19593;SDS011;9944;48.240;16.478;2023-03-23T06:26:47;9.35;;;5.80;;
19593;SDS011;9944;48.240;16.478;2023-03-23T06:30:53;7.85;;;5.43;;
19593;SDS011;9944;48.240;16.478;2023-03-23T06:34:55;6.97;;;5.22;;
19593;SDS011;9944;48.240;16.478;2023-03-23T06:39:19;11.77;;;5.47;;
19593;SDS011;9944;48.240;16.478;2023-03-23T06:43:31;8.90;;;5.47;;
19593;SDS011;9944;48.240;16.478;2023-03-23T06:47:47;9.05;;;4.88;;
19593;SDS011;9944;48.240;16.478;2023-03-23T06:51:50;10.20;;;6.35;;
19593;SDS011;9944;48.240;16.478;2023-03-23T06:55:52;7.80;;;5.50;;
19593;SDS011;9944;48.240;16.478;2023-03-23T06:59:56;9.30;;;5.75;;
19593;SDS011;9944;48.240;16.478;2023-03-23T07:03:59;9.18;;;5.70;;
19593;SDS011;9944;48.240;16.478;2023-03-23T07:08:12;7.40;;;5.38;;
19593;SDS011;9944;48.240;16.478;2023-03-23T07:12:20;8.50;;;5.75;;
19593;SDS011;9944;48.240;16.478;2023-03-23T07:16:26;14.02;;;6.25;;
19593;SDS011;9944;48.240;16.478;2023-03-23T07:20:28;8.85;;;6.05;;
19593;SDS011;9944;48.240;16.478;2023-03-23T07:24:31;9.38;;;6.32;;
19593;SDS011;9944;48.240;16.478;2023-03-23T07:28:53;11.55;;;6.72;;
19593;SDS011;9944;48.240;16.478;2023-03-23T07:33:04;8.65;;;6.07;;
19593;SDS011;9944;48.240;16.478;2023-03-23T07:37:08;9.50;;;6.70;;
19593;SDS011;9944;48.240;16.478;2023-03-23T07:41:11;12.25;;;7.05;;
19593;SDS011;9944;48.240;16.478;2023-03-23T07:45:16;9.90;;;6.70;;
19593;SDS011;9944;48.240;16.478;2023-03-23T07:49:20;8.75;;;6.00;;
19593;SDS011;9944;48.240;16.478;2023-03-23T07:53:33;8.00;;;5.82;;
19593;SDS011;9944;48.240;16.478;2023-03-23T07:58:05;8.48;;;5.53;;
19593;SDS011;9944;48.240;16.478;2023-03-23T08:02:07;11.73;;;5.97;;
19593;SDS011;9944;48.240;16.478;2023-03-23T08:06:18;10.40;;;5.55;;
19593;SDS011;9944;48.240;16.478;2023-03-23T08:10:31;8.40;;;5.63;;
19593;SDS011;9944;48.240;16.478;2023-03-23T08:14:53;9.13;;;5.40;;
19593;SDS011;9944;48.240;16.478;2023-03-23T08:19:24;8.63;;;5.28;;
19593;SDS011;9944;48.240;16.478;2023-03-23T08:24:03;12.93;;;6.00;;
19593;SDS011;9944;48.240;16.478;2023-03-23T08:28:25;9.43;;;5.85;;
19593;SDS011;9944;48.240;16.478;2023-03-23T08:32:46;8.82;;;5.75;;
19593;SDS011;9944;48.240;16.478;2023-03-23T08:37:11;7.07;;;5.00;;
19593;SDS011;9944;48.240;16.478;2023-03-23T08:41:20;7.43;;;5.45;;
19593;SDS011;9944;48.240;16.478;2023-03-23T08:45:40;7.72;;;5.20;;
19593;SDS011;9944;48.240;16.478;2023-03-23T08:50:03;9.18;;;5.30;;
19593;SDS011;9944;48.240;16.478;2023-03-23T08:54:42;11.05;;;5.38;;
19593;SDS011;9944;48.240;16.478;2023-03-23T08:59:07;8.80;;;5.15;;
19593;SDS011;9944;48.240;16.478;2023-03-23T09:03:15;9.63;;;5.93;;
19593;SDS011;9944;48.240;16.478;2023-03-23T09:07:48;7.90;;;5.63;;
19593;SDS011;9944;48.240;16.478;2023-03-23T09:11:52;8.38;;;5.63;;
19593;SDS011;9944;48.240;16.478;2023-03-23T09:15:56;8.57;;;5.45;;
19593;SDS011;9944;48.240;16.478;2023-03-23T09:19:58;9.20;;;5.65;;
19593;SDS011;9944;48.240;16.478;2023-03-23T09:24:00;9.02;;;5.47;;
19593;SDS011;9944;48.240;16.478;2023-03-23T09:28:02;8.30;;;5.60;;
19593;SDS011;9944;48.240;16.478;2023-03-23T09:32:06;7.88;;;5.78;;
19593;SDS011;9944;48.240;16.478;2023-03-23T09:36:08;8.65;;;5.93;;
19593;SDS011;9944;48.240;16.478;2023-03-23T09:40:14;8.52;;;5.60;;
19593;SDS011;9944;48.240;16.478;2023-03-23T09:44:21;7.75;;;5.65;;
19593;SDS011;9944;48.240;16.478;2023-03-23T09:48:38;7.55;;;5.72;;
19593;SDS011;9944;48.240;16.478;2023-03-23T09:52:49;8.73;;;6.05;;
19593;SDS011;9944;48.240;16.478;2023-03-23T09:56:57;7.88;;;5.80;;
19593;SDS011;9944;48.240;16.478;2023-03-23T10:01:02;9.60;;;6.03;;
19593;SDS011;9944;48.240;16.478;2023-03-23T10:05:17;8.13;;;5.82;;
19593;SDS011;9944;48.240;16.478;2023-03-23T10:09:26;9.75;;;6.13;;
19593;SDS011;9944;48.240;16.478;2023-03-23T10:13:43;8.77;;;5.90;;
19593;SDS011;9944;48.240;16.478;2023-03-23T10:17:59;7.80;;;5.07;;
19593;SDS011;9944;48.240;16.478;2023-03-23T10:22:08;7.70;;;5.55;;
19593;SDS011;9944;48.240;16.478;2023-03-23T10:26:14;7.78;;;5.50;;
19593;SDS011;9944;48.240;16.478;2023-03-23T10:30:24;9.57;;;5.82;;
19593;SDS011;9944;48.240;16.478;2023-03-23T10:34:30;5.93;;;4.60;;
19593;SDS011;9944;48.240;16.478;2023-03-23T10:38:38;8.35;;;5.38;;
19593;SDS011;9944;48.240;16.478;2023-03-23T10:42:44;7.82;;;5.18;;
19593;SDS011;9944;48.240;16.478;2023-03-23T10:46:49;7.57;;;5.05;;
19593;SDS011;9944;48.240;16.478;2023-03-23T10:50:58;6.50;;;4.88;;
19593;SDS011;9944;48.240;16.478;2023-03-23T10:55:05;6.78;;;4.75;;
19593;SDS011;9944;48.240;16.478;2023-03-23T10:59:11;7.82;;;4.88;;
19593;SDS011;9944;48.240;16.478;2023-03-23T11:03:22;6.97;;;4.63;;
19593;SDS011;9944;48.240;16.478;2023-03-23T11:07:29;7.97;;;4.25;;
19593;SDS011;9944;48.240;16.478;2023-03-23T11:11:38;6.13;;;4.20;;
19593;SDS011;9944;48.240;16.478;2023-03-23T11:15:43;6.25;;;4.60;;
19593;SDS011;9944;48.240;16.478;2023-03-23T11:19:47;10.13;;;4.95;;
19593;SDS011;9944;48.240;16.478;2023-03-23T11:23:49;6.28;;;4.43;;
19593;SDS011;9944;48.240;16.478;2023-03-23T11:27:54;5.70;;;4.13;;
19593;SDS011;9944;48.240;16.478;2023-03-23T11:32:02;6.55;;;3.85;;
19593;SDS011;9944;48.240;16.478;2023-03-23T11:36:08;6.53;;;4.05;;
19593;SDS011;9944;48.240;16.478;2023-03-23T11:40:14;6.10;;;3.80;;
19593;SDS011;9944;48.240;16.478;2023-03-23T11:44:21;6.13;;;3.83;;
19593;SDS011;9944;48.240;16.478;2023-03-23T11:48:25;4.78;;;3.65;;
19593;SDS011;9944;48.240;16.478;2023-03-23T11:52:38;8.15;;;4.55;;
19593;SDS011;9944;48.240;16.478;2023-03-23T11:56:44;8.77;;;4.15;;
19593;SDS011;9944;48.240;16.478;2023-03-23T12:00:48;4.55;;;3.30;;
19593;SDS011;9944;48.240;16.478;2023-03-23T12:04:57;4.93;;;3.72;;
19593;SDS011;9944;48.240;16.478;2023-03-23T12:09:15;5.00;;;3.38;;
19593;SDS011;9944;48.240;16.478;2023-03-23T12:13:43;5.07;;;3.40;;
19593;SDS011;9944;48.240;16.478;2023-03-23T12:18:03;6.20;;;3.55;;
19593;SDS011;9944;48.240;16.478;2023-03-23T12:22:18;5.25;;;3.50;;
19593;SDS011;9944;48.240;16.478;2023-03-23T12:26:33;6.60;;;3.72;;
19593;SDS011;9944;48.240;16.478;2023-03-23T12:30:41;8.38;;;3.13;;
19593;SDS011;9944;48.240;16.478;2023-03-23T12:34:49;4.70;;;3.30;;
19593;SDS011;9944;48.240;16.478;2023-03-23T12:39:10;3.85;;;3.05;;
19593;SDS011;9944;48.240;16.478;2023-03-23T12:43:36;29.17;;;4.47;;
19593;SDS011;9944;48.240;16.478;2023-03-23T12:47:45;4.68;;;3.33;;
19593;SDS011;9944;48.240;16.478;2023-03-23T12:51:54;5.30;;;3.58;;
19593;SDS011;9944;48.240;16.478;2023-03-23T12:56:06;4.82;;;3.30;;
19593;SDS011;9944;48.240;16.478;2023-03-23T13:00:14;4.05;;;3.25;;
19593;SDS011;9944;48.240;16.478;2023-03-23T13:04:23;4.82;;;3.05;;
19593;SDS011;9944;48.240;16.478;2023-03-23T13:08:33;3.42;;;2.88;;
19593;SDS011;9944;48.240;16.478;2023-03-23T13:12:38;4.35;;;3.10;;
19593;SDS011;9944;48.240;16.478;2023-03-23T13:16:45;6.07;;;3.40;;
19593;SDS011;9944;48.240;16.478;2023-03-23T13:20:53;3.53;;;2.72;;
19593;SDS011;9944;48.240;16.478;2023-03-23T13:25:03;8.25;;;3.40;;
19593;SDS011;9944;48.240;16.478;2023-03-23T13:29:12;4.10;;;2.85;;
19593;SDS011;9944;48.240;16.478;2023-03-23T13:33:18;4.68;;;2.85;;
19593;SDS011;9944;48.240;16.478;2023-03-23T13:37:23;3.80;;;3.08;;
19593;SDS011;9944;48.240;16.478;2023-03-23T13:41:28;4.47;;;3.17;;
19593;SDS011;9944;48.240;16.478;2023-03-23T13:45:43;4.70;;;3.05;;
19593;SDS011;9944;48.240;16.478;2023-03-23T13:49:49;6.32;;;3.28;;
19593;SDS011;9944;48.240;16.478;2023-03-23T13:53:52;4.05;;;2.80;;
19593;SDS011;9944;48.240;16.478;2023-03-23T13:58:11;3.72;;;2.47;;
19593;SDS011;9944;48.240;16.478;2023-03-23T14:02:29;2.97;;;2.40;;
19593;SDS011;9944;48.240;16.478;2023-03-23T14:06:34;2.25;;;1.83;;
19593;SDS011;9944;48.240;16.478;2023-03-23T14:10:43;3.22;;;2.20;;
19593;SDS011;9944;48.240;16.478;2023-03-23T14:14:56;2.97;;;2.03;;
19593;SDS011;9944;48.240;16.478;2023-03-23T14:19:13;2.65;;;2.05;;
19593;SDS011;9944;48.240;16.478;2023-03-23T14:23:18;2.42;;;1.98;;
19593;SDS011;9944;48.240;16.478;2023-03-23T14:27:22;2.88;;;2.30;;
19593;SDS011;9944;48.240;16.478;2023-03-23T14:31:27;5.18;;;2.53;;
19593;SDS011;9944;48.240;16.478;2023-03-23T14:35:30;2.75;;;2.40;;
19593;SDS011;9944;48.240;16.478;2023-03-23T14:39:35;3.28;;;2.33;;
19593;SDS011;9944;48.240;16.478;2023-03-23T14:43:38;3.13;;;1.70;;
19593;SDS011;9944;48.240;16.478;2023-03-23T14:47:43;2.28;;;2.00;;
19593;SDS011;9944;48.240;16.478;2023-03-23T14:51:48;2.75;;;2.10;;
19593;SDS011;9944;48.240;16.478;2023-03-23T14:55:54;3.05;;;2.13;;
19593;SDS011;9944;48.240;16.478;2023-03-23T14:59:57;3.15;;;2.20;;
19593;SDS011;9944;48.240;16.478;2023-03-23T15:04:03;3.17;;;2.22;;
19593;SDS011;9944;48.240;16.478;2023-03-23T15:08:11;4.70;;;2.00;;
19593;SDS011;9944;48.240;16.478;2023-03-23T15:12:19;3.08;;;2.10;;
19593;SDS011;9944;48.240;16.478;2023-03-23T15:16:25;3.47;;;1.98;;
19593;SDS011;9944;48.240;16.478;2023-03-23T15:20:31;3.13;;;2.22;;
19593;SDS011;9944;48.240;16.478;2023-03-23T15:24:47;2.85;;;2.20;;
19593;SDS011;9944;48.240;16.478;2023-03-23T15:29:05;3.85;;;2.20;;
19593;SDS011;9944;48.240;16.478;2023-03-23T15:33:21;8.00;;;2.60;;
19593;SDS011;9944;48.240;16.478;2023-03-23T15:37:29;2.65;;;2.30;;
19593;SDS011;9944;48.240;16.478;2023-03-23T15:41:33;5.40;;;2.70;;
19593;SDS011;9944;48.240;16.478;2023-03-23T15:45:35;3.60;;;2.40;;
19593;SDS011;9944;48.240;16.478;2023-03-23T15:49:37;3.95;;;2.58;;
19593;SDS011;9944;48.240;16.478;2023-03-23T15:53:41;3.20;;;2.50;;
19593;SDS011;9944;48.240;16.478;2023-03-23T15:57:44;3.72;;;2.78;;
19593;SDS011;9944;48.240;16.478;2023-03-23T16:01:47;4.53;;;2.83;;
19593;SDS011;9944;48.240;16.478;2023-03-23T16:05:51;4.30;;;2.95;;
19593;SDS011;9944;48.240;16.478;2023-03-23T16:09:56;4.85;;;2.90;;
19593;SDS011;9944;48.240;16.478;2023-03-23T16:14:00;5.82;;;3.05;;
19593;SDS011;9944;48.240;16.478;2023-03-23T16:18:04;3.90;;;3.05;;
19593;SDS011;9944;48.240;16.478;2023-03-23T16:22:08;5.05;;;3.30;;
19593;SDS011;9944;48.240;16.478;2023-03-23T16:26:13;5.63;;;2.95;;
19593;SDS011;9944;48.240;16.478;2023-03-23T16:30:18;5.35;;;3.50;;
19593;SDS011;9944;48.240;16.478;2023-03-23T16:34:22;3.88;;;2.83;;
19593;SDS011;9944;48.240;16.478;2023-03-23T16:38:29;5.70;;;3.17;;
19593;SDS011;9944;48.240;16.478;2023-03-23T16:42:34;5.00;;;3.65;;
19593;SDS011;9944;48.240;16.478;2023-03-23T16:46:37;6.75;;;3.50;;
19593;SDS011;9944;48.240;16.478;2023-03-23T16:50:41;5.28;;;3.40;;
19593;SDS011;9944;48.240;16.478;2023-03-23T16:54:46;6.72;;;3.47;;
19593;SDS011;9944;48.240;16.478;2023-03-23T16:58:50;6.95;;;4.15;;
19593;SDS011;9944;48.240;16.478;2023-03-23T17:02:54;6.03;;;4.15;;
19593;SDS011;9944;48.240;16.478;2023-03-23T17:06:59;7.28;;;4.30;;
19593;SDS011;9944;48.240;16.478;2023-03-23T17:11:02;10.02;;;4.15;;
19593;SDS011;9944;48.240;16.478;2023-03-23T17:15:08;7.43;;;4.05;;
19593;SDS011;9944;48.240;16.478;2023-03-23T17:19:13;6.32;;;3.65;;
19593;SDS011;9944;48.240;16.478;2023-03-23T17:23:17;6.00;;;3.67;;
19593;SDS011;9944;48.240;16.478;2023-03-23T17:27:20;7.97;;;4.85;;
19593;SDS011;9944;48.240;16.478;2023-03-23T17:31:25;8.15;;;4.57;;
19593;SDS011;9944;48.240;16.478;2023-03-23T17:35:29;8.43;;;4.80;;
19593;SDS011;9944;48.240;16.478;2023-03-23T17:39:33;4.57;;;3.47;;
19593;SDS011;9944;48.240;16.478;2023-03-23T17:43:46;5.57;;;4.05;;
19593;SDS011;9944;48.240;16.478;2023-03-23T17:47:52;9.90;;;5.15;;
19593;SDS011;9944;48.240;16.478;2023-03-23T17:51:56;12.13;;;5.57;;
19593;SDS011;9944;48.240;16.478;2023-03-23T17:56:04;10.52;;;6.25;;
19593;SDS011;9944;48.240;16.478;2023-03-23T18:00:08;8.63;;;5.85;;
19593;SDS011;9944;48.240;16.478;2023-03-23T18:04:14;11.50;;;6.43;;
19593;SDS011;9944;48.240;16.478;2023-03-23T18:08:17;9.18;;;6.13;;
19593;SDS011;9944;48.240;16.478;2023-03-23T18:12:21;8.18;;;5.22;;
19593;SDS011;9944;48.240;16.478;2023-03-23T18:16:24;9.38;;;5.45;;
19593;SDS011;9944;48.240;16.478;2023-03-23T18:20:30;7.53;;;5.15;;
19593;SDS011;9944;48.240;16.478;2023-03-23T18:24:34;8.05;;;5.63;;
19593;SDS011;9944;48.240;16.478;2023-03-23T18:28:37;10.30;;;6.10;;
19593;SDS011;9944;48.240;16.478;2023-03-23T18:32:42;8.63;;;5.68;;
19593;SDS011;9944;48.240;16.478;2023-03-23T18:36:48;7.72;;;5.85;;
19593;SDS011;9944;48.240;16.478;2023-03-23T18:40:52;11.02;;;6.20;;
19593;SDS011;9944;48.240;16.478;2023-03-23T18:44:55;8.90;;;6.40;;
19593;SDS011;9944;48.240;16.478;2023-03-23T18:49:00;7.72;;;5.80;;
19593;SDS011;9944;48.240;16.478;2023-03-23T18:53:05;9.07;;;6.45;;
19593;SDS011;9944;48.240;16.478;2023-03-23T18:57:08;9.30;;;6.18;;
19593;SDS011;9944;48.240;16.478;2023-03-23T19:01:12;12.73;;;6.60;;
19593;SDS011;9944;48.240;16.478;2023-03-23T19:05:16;7.68;;;5.25;;
19593;SDS011;9944;48.240;16.478;2023-03-23T19:09:20;9.20;;;5.85;;
19593;SDS011;9944;48.240;16.478;2023-03-23T19:13:24;9.30;;;5.57;;
19593;SDS011;9944;48.240;16.478;2023-03-23T19:17:27;8.73;;;5.40;;
19593;SDS011;9944;48.240;16.478;2023-03-23T19:21:31;9.40;;;6.35;;
19593;SDS011;9944;48.240;16.478;2023-03-23T19:25:36;8.45;;;6.18;;
19593;SDS011;9944;48.240;16.478;2023-03-23T19:29:39;7.25;;;6.00;;
19593;SDS011;9944;48.240;16.478;2023-03-23T19:33:42;12.18;;;6.43;;
19593;SDS011;9944;48.240;16.478;2023-03-23T19:37:47;10.30;;;6.57;;
19593;SDS011;9944;48.240;16.478;2023-03-23T19:41:52;8.50;;;5.88;;
19593;SDS011;9944;48.240;16.478;2023-03-23T19:45:58;11.02;;;6.80;;
19593;SDS011;9944;48.240;16.478;2023-03-23T19:50:08;10.68;;;6.57;;
19593;SDS011;9944;48.240;16.478;2023-03-23T19:54:11;9.48;;;6.22;;
19593;SDS011;9944;48.240;16.478;2023-03-23T19:58:16;9.50;;;6.22;;
19593;SDS011;9944;48.240;16.478;2023-03-23T20:02:19;9.50;;;6.00;;
19593;SDS011;9944;48.240;16.478;2023-03-23T20:06:22;13.65;;;7.80;;
19593;SDS011;9944;48.240;16.478;2023-03-23T20:10:25;11.73;;;6.80;;
19593;SDS011;9944;48.240;16.478;2023-03-23T20:14:32;11.95;;;7.15;;
19593;SDS011;9944;48.240;16.478;2023-03-23T20:18:35;10.90;;;6.93;;
19593;SDS011;9944;48.240;16.478;2023-03-23T20:22:39;10.27;;;6.80;;
19593;SDS011;9944;48.240;16.478;2023-03-23T20:26:43;10.75;;;7.30;;
19593;SDS011;9944;48.240;16.478;2023-03-23T20:30:47;9.70;;;6.65;;
19593;SDS011;9944;48.240;16.478;2023-03-23T20:35:10;9.73;;;6.47;;
19593;SDS011;9944;48.240;16.478;2023-03-23T20:39:15;9.15;;;6.22;;
19593;SDS011;9944;48.240;16.478;2023-03-23T20:43:22;8.95;;;6.55;;
19593;SDS011;9944;48.240;16.478;2023-03-23T20:47:31;10.90;;;6.32;;
19593;SDS011;9944;48.240;16.478;2023-03-23T20:51:34;9.77;;;6.53;;
19593;SDS011;9944;48.240;16.478;2023-03-23T20:55:38;11.65;;;7.03;;
19593;SDS011;9944;48.240;16.478;2023-03-23T20:59:41;10.98;;;6.78;;
19593;SDS011;9944;48.240;16.478;2023-03-23T21:03:48;10.18;;;6.70;;
19593;SDS011;9944;48.240;16.478;2023-03-23T21:07:52;10.52;;;7.07;;
19593;SDS011;9944;48.240;16.478;2023-03-23T21:11:58;12.23;;;7.03;;
19593;SDS011;9944;48.240;16.478;2023-03-23T21:16:05;13.38;;;7.70;;
19593;SDS011;9944;48.240;16.478;2023-03-23T21:20:10;13.10;;;8.80;;
19593;SDS011;9944;48.240;16.478;2023-03-23T21:24:13;11.20;;;7.45;;
19593;SDS011;9944;48.240;16.478;2023-03-23T21:28:17;10.57;;;7.18;;
19593;SDS011;9944;48.240;16.478;2023-03-23T21:32:20;10.07;;;7.00;;
19593;SDS011;9944;48.240;16.478;2023-03-23T21:36:25;11.30;;;7.40;;
19593;SDS011;9944;48.240;16.478;2023-03-23T21:40:28;15.75;;;8.93;;
19593;SDS011;9944;48.240;16.478;2023-03-23T21:44:32;14.25;;;8.63;;
19593;SDS011;9944;48.240;16.478;2023-03-23T21:48:36;14.43;;;9.27;;
19593;SDS011;9944;48.240;16.478;2023-03-23T21:52:43;14.75;;;9.82;;
19593;SDS011;9944;48.240;16.478;2023-03-23T21:56:46;13.68;;;8.02;;
19593;SDS011;9944;48.240;16.478;2023-03-23T22:00:50;11.35;;;7.45;;
19593;SDS011;9944;48.240;16.478;2023-03-23T22:04:55;12.48;;;8.10;;
19593;SDS011;9944;48.240;16.478;2023-03-23T22:09:00;13.38;;;8.20;;
19593;SDS011;9944;48.240;16.478;2023-03-23T22:13:06;14.57;;;8.35;;
19593;SDS011;9944;48.240;16.478;2023-03-23T22:17:09;12.75;;;8.40;;
19593;SDS011;9944;48.240;16.478;2023-03-23T22:21:13;14.65;;;9.30;;
19593;SDS011;9944;48.240;16.478;2023-03-23T22:25:19;18.92;;;9.07;;
19593;SDS011;9944;48.240;16.478;2023-03-23T22:29:22;13.57;;;8.38;;
19593;SDS011;9944;48.240;16.478;2023-03-23T22:33:25;13.15;;;8.52;;
19593;SDS011;9944;48.240;16.478;2023-03-23T22:37:29;16.15;;;8.48;;
19593;SDS011;9944;48.240;16.478;2023-03-23T22:41:34;13.25;;;8.85;;
19593;SDS011;9944;48.240;16.478;2023-03-23T22:45:38;14.00;;;8.75;;
19593;SDS011;9944;48.240;16.478;2023-03-23T22:49:42;15.75;;;9.13;;
19593;SDS011;9944;48.240;16.478;2023-03-23T22:53:45;16.63;;;9.38;;
19593;SDS011;9944;48.240;16.478;2023-03-23T22:57:50;15.13;;;9.70;;
19593;SDS011;9944;48.240;16.478;2023-03-23T23:01:53;12.27;;;8.55;;
19593;SDS011;9944;48.240;16.478;2023-03-23T23:05:56;11.77;;;8.45;;
19593;SDS011;9944;48.240;16.478;2023-03-23T23:10:01;13.35;;;8.85;;
19593;SDS011;9944;48.240;16.478;2023-03-23T23:14:06;14.00;;;9.20;;
19593;SDS011;9944;48.240;16.478;2023-03-23T23:18:09;17.08;;;9.63;;
19593;SDS011;9944;48.240;16.478;2023-03-23T23:22:13;13.05;;;7.97;;
19593;SDS011;9944;48.240;16.478;2023-03-23T23:26:20;12.27;;;9.25;;
19593;SDS011;9944;48.240;16.478;2023-03-23T23:30:25;13.38;;;8.88;;
19593;SDS011;9944;48.240;16.478;2023-03-23T23:34:28;16.95;;;10.00;;
19593;SDS011;9944;48.240;16.478;2023-03-23T23:38:32;13.13;;;9.13;;
19593;SDS011;9944;48.240;16.478;2023-03-23T23:42:36;15.13;;;9.48;;
19593;SDS011;9944;48.240;16.478;2023-03-23T23:46:40;17.15;;;9.43;;
19593;SDS011;9944;48.240;16.478;2023-03-23T23:50:44;16.27;;;9.95;;
19593;SDS011;9944;48.240;16.478;2023-03-23T23:54:48;17.33;;;9.65;;
19593;SDS011;9944;48.240;16.478;2023-03-23T23:58:53;13.80;;;9.68;;
